sensor_id;sensor_type;location;lat;lon;timestamp;temperature;humidity
55135;DHT22;41031;44.750;11.308;2023-06-10T00:01:07;23.40;92.80
55135;DHT22;41031;44.750;11.308;2023-06-10T00:03:34;23.30;93.00
55135;DHT22;41031;44.750;11.308;2023-06-10T00:06:04;23.30;93.10
55135;DHT22;41031;44.750;11.308;2023-06-10T00:08:32;23.30;93.20
55135;DHT22;41031;44.750;11.308;2023-06-10T00:10:59;23.20;93.10
55135;DHT22;41031;44.750;11.308;2023-06-10T00:13:27;23.10;93.10
55135;DHT22;41031;44.750;11.308;2023-06-10T00:15:54;23.10;93.40
55135;DHT22;41031;44.750;11.308;2023-06-10T00:18:22;23.10;93.50
55135;DHT22;41031;44.750;11.308;2023-06-10T00:20:49;23.10;93.70
55135;DHT22;41031;44.750;11.308;2023-06-10T00:23:20;23.00;93.70
55135;DHT22;41031;44.750;11.308;2023-06-10T00:25:47;23.00;93.70
55135;DHT22;41031;44.750;11.308;2023-06-10T00:28:15;23.00;93.80
55135;DHT22;41031;44.750;11.308;2023-06-10T00:30:43;23.00;93.90
55135;DHT22;41031;44.750;11.308;2023-06-10T00:33:10;23.00;94.20
55135;DHT22;41031;44.750;11.308;2023-06-10T00:35:45;22.90;93.80
55135;DHT22;41031;44.750;11.308;2023-06-10T00:38:15;22.90;93.70
55135;DHT22;41031;44.750;11.308;2023-06-10T00:40:43;22.90;93.70
55135;DHT22;41031;44.750;11.308;2023-06-10T00:43:10;22.80;93.70
55135;DHT22;41031;44.750;11.308;2023-06-10T00:45:38;22.80;93.80
55135;DHT22;41031;44.750;11.308;2023-06-10T00:48:15;22.80;93.90
55135;DHT22;41031;44.750;11.308;2023-06-10T00:50:50;22.80;93.90
55135;DHT22;41031;44.750;11.308;2023-06-10T00:53:24;22.70;93.90
55135;DHT22;41031;44.750;11.308;2023-06-10T00:55:55;22.70;93.90
55135;DHT22;41031;44.750;11.308;2023-06-10T00:58:28;22.70;94.00
55135;DHT22;41031;44.750;11.308;2023-06-10T01:00:55;22.70;94.10
55135;DHT22;41031;44.750;11.308;2023-06-10T01:03:27;22.70;94.20
55135;DHT22;41031;44.750;11.308;2023-06-10T01:06:04;22.70;94.20
55135;DHT22;41031;44.750;11.308;2023-06-10T01:08:38;22.60;94.30
55135;DHT22;41031;44.750;11.308;2023-06-10T01:11:16;22.60;94.40
55135;DHT22;41031;44.750;11.308;2023-06-10T01:13:45;22.60;94.50
55135;DHT22;41031;44.750;11.308;2023-06-10T01:16:13;22.60;94.60
55135;DHT22;41031;44.750;11.308;2023-06-10T01:18:40;22.60;94.60
55135;DHT22;41031;44.750;11.308;2023-06-10T01:21:21;22.60;94.70
55135;DHT22;41031;44.750;11.308;2023-06-10T01:23:52;22.50;94.80
55135;DHT22;41031;44.750;11.308;2023-06-10T01:26:28;22.50;94.90
55135;DHT22;41031;44.750;11.308;2023-06-10T01:31:31;22.40;94.90
55135;DHT22;41031;44.750;11.308;2023-06-10T01:34:01;22.40;95.00
55135;DHT22;41031;44.750;11.308;2023-06-10T01:36:31;22.40;95.00
55135;DHT22;41031;44.750;11.308;2023-06-10T01:38:59;22.40;95.00
55135;DHT22;41031;44.750;11.308;2023-06-10T01:41:28;22.30;95.00
55135;DHT22;41031;44.750;11.308;2023-06-10T01:43:56;22.30;95.00
55135;DHT22;41031;44.750;11.308;2023-06-10T01:46:24;22.30;95.10
55135;DHT22;41031;44.750;11.308;2023-06-10T01:48:53;22.20;95.10
55135;DHT22;41031;44.750;11.308;2023-06-10T01:51:22;22.20;95.10
55135;DHT22;41031;44.750;11.308;2023-06-10T01:54:15;22.10;95.10
55135;DHT22;41031;44.750;11.308;2023-06-10T01:56:43;22.00;95.20
55135;DHT22;41031;44.750;11.308;2023-06-10T01:59:10;22.00;95.20
55135;DHT22;41031;44.750;11.308;2023-06-10T02:01:38;22.00;95.30
55135;DHT22;41031;44.750;11.308;2023-06-10T02:04:05;22.00;95.30
55135;DHT22;41031;44.750;11.308;2023-06-10T02:06:32;21.90;95.40
55135;DHT22;41031;44.750;11.308;2023-06-10T02:08:59;21.90;95.50
55135;DHT22;41031;44.750;11.308;2023-06-10T02:11:29;21.90;95.60
55135;DHT22;41031;44.750;11.308;2023-06-10T02:13:57;21.90;95.60
55135;DHT22;41031;44.750;11.308;2023-06-10T02:16:24;21.90;95.70
55135;DHT22;41031;44.750;11.308;2023-06-10T02:18:52;21.80;95.60
55135;DHT22;41031;44.750;11.308;2023-06-10T02:21:19;21.80;95.70
55135;DHT22;41031;44.750;11.308;2023-06-10T02:23:46;21.80;95.80
55135;DHT22;41031;44.750;11.308;2023-06-10T02:26:13;21.70;95.70
55135;DHT22;41031;44.750;11.308;2023-06-10T02:28:44;21.70;95.80
55135;DHT22;41031;44.750;11.308;2023-06-10T02:31:13;21.70;95.80
55135;DHT22;41031;44.750;11.308;2023-06-10T02:33:41;21.70;95.90
55135;DHT22;41031;44.750;11.308;2023-06-10T02:36:09;21.70;96.00
55135;DHT22;41031;44.750;11.308;2023-06-10T02:38:40;21.70;95.90
55135;DHT22;41031;44.750;11.308;2023-06-10T02:41:08;21.60;95.40
55135;DHT22;41031;44.750;11.308;2023-06-10T02:43:35;21.60;95.20
55135;DHT22;41031;44.750;11.308;2023-06-10T02:46:07;21.50;95.30
55135;DHT22;41031;44.750;11.308;2023-06-10T02:48:42;21.50;95.50
55135;DHT22;41031;44.750;11.308;2023-06-10T02:51:13;21.50;95.70
55135;DHT22;41031;44.750;11.308;2023-06-10T02:53:44;21.40;95.70
55135;DHT22;41031;44.750;11.308;2023-06-10T02:56:15;21.40;95.80
55135;DHT22;41031;44.750;11.308;2023-06-10T02:58:43;21.40;95.90
55135;DHT22;41031;44.750;11.308;2023-06-10T03:01:13;21.50;95.90
55135;DHT22;41031;44.750;11.308;2023-06-10T03:03:48;21.50;95.90
55135;DHT22;41031;44.750;11.308;2023-06-10T03:06:18;21.50;95.90
55135;DHT22;41031;44.750;11.308;2023-06-10T03:09:02;21.50;95.90
55135;DHT22;41031;44.750;11.308;2023-06-10T03:11:35;21.50;95.90
55135;DHT22;41031;44.750;11.308;2023-06-10T03:14:06;21.50;95.90
55135;DHT22;41031;44.750;11.308;2023-06-10T03:16:33;21.50;95.90
55135;DHT22;41031;44.750;11.308;2023-06-10T03:19:04;21.50;95.90
55135;DHT22;41031;44.750;11.308;2023-06-10T03:21:32;21.60;95.90
55135;DHT22;41031;44.750;11.308;2023-06-10T03:23:59;21.50;96.00
55135;DHT22;41031;44.750;11.308;2023-06-10T03:26:27;21.50;96.10
55135;DHT22;41031;44.750;11.308;2023-06-10T03:28:55;21.60;96.10
55135;DHT22;41031;44.750;11.308;2023-06-10T03:31:24;21.50;96.20
55135;DHT22;41031;44.750;11.308;2023-06-10T03:34:07;21.50;96.20
55135;DHT22;41031;44.750;11.308;2023-06-10T03:37:02;21.50;96.20
55135;DHT22;41031;44.750;11.308;2023-06-10T03:39:36;21.50;96.10
55135;DHT22;41031;44.750;11.308;2023-06-10T03:42:09;21.50;96.10
55135;DHT22;41031;44.750;11.308;2023-06-10T03:45:07;21.50;96.10
55135;DHT22;41031;44.750;11.308;2023-06-10T03:47:39;21.50;96.30
55135;DHT22;41031;44.750;11.308;2023-06-10T03:50:22;21.40;96.30
55135;DHT22;41031;44.750;11.308;2023-06-10T03:53:01;21.50;96.40
55135;DHT22;41031;44.750;11.308;2023-06-10T03:58:30;21.50;96.50
55135;DHT22;41031;44.750;11.308;2023-06-10T04:01:14;21.50;96.50
55135;DHT22;41031;44.750;11.308;2023-06-10T04:04:14;21.50;96.60
55135;DHT22;41031;44.750;11.308;2023-06-10T04:06:45;21.60;96.60
55135;DHT22;41031;44.750;11.308;2023-06-10T04:09:20;21.60;96.60
55135;DHT22;41031;44.750;11.308;2023-06-10T04:12:02;21.60;96.60
55135;DHT22;41031;44.750;11.308;2023-06-10T04:14:49;21.60;96.70
55135;DHT22;41031;44.750;11.308;2023-06-10T04:17:18;21.60;96.70
55135;DHT22;41031;44.750;11.308;2023-06-10T04:20:34;21.60;96.70
55135;DHT22;41031;44.750;11.308;2023-06-10T04:23:23;21.70;96.80
55135;DHT22;41031;44.750;11.308;2023-06-10T04:26:14;21.70;96.80
55135;DHT22;41031;44.750;11.308;2023-06-10T04:28:56;21.70;96.90
55135;DHT22;41031;44.750;11.308;2023-06-10T04:31:28;21.80;96.90
55135;DHT22;41031;44.750;11.308;2023-06-10T04:34:11;21.80;97.00
55135;DHT22;41031;44.750;11.308;2023-06-10T04:36:44;21.80;97.00
55135;DHT22;41031;44.750;11.308;2023-06-10T04:39:34;21.80;97.00
55135;DHT22;41031;44.750;11.308;2023-06-10T04:42:26;21.90;97.10
55135;DHT22;41031;44.750;11.308;2023-06-10T04:45:09;21.90;97.10
55135;DHT22;41031;44.750;11.308;2023-06-10T04:48:06;21.90;97.10
55135;DHT22;41031;44.750;11.308;2023-06-10T04:50:45;21.90;97.10
55135;DHT22;41031;44.750;11.308;2023-06-10T04:53:19;21.90;97.10
55135;DHT22;41031;44.750;11.308;2023-06-10T04:56:06;21.90;97.10
55135;DHT22;41031;44.750;11.308;2023-06-10T04:58:51;22.00;97.10
55135;DHT22;41031;44.750;11.308;2023-06-10T05:01:34;22.00;97.10
55135;DHT22;41031;44.750;11.308;2023-06-10T05:04:07;22.00;97.20
55135;DHT22;41031;44.750;11.308;2023-06-10T05:06:42;22.00;97.20
55135;DHT22;41031;44.750;11.308;2023-06-10T05:09:44;22.00;97.20
55135;DHT22;41031;44.750;11.308;2023-06-10T05:12:28;22.00;97.30
55135;DHT22;41031;44.750;11.308;2023-06-10T05:15:31;22.00;97.30
55135;DHT22;41031;44.750;11.308;2023-06-10T05:18:11;22.10;97.40
55135;DHT22;41031;44.750;11.308;2023-06-10T05:30:29;22.10;97.40
55135;DHT22;41031;44.750;11.308;2023-06-10T05:32:57;22.10;97.40
55135;DHT22;41031;44.750;11.308;2023-06-10T05:38:55;22.20;97.50
55135;DHT22;41031;44.750;11.308;2023-06-10T05:41:49;22.20;97.50
55135;DHT22;41031;44.750;11.308;2023-06-10T05:45:05;22.10;97.50
55135;DHT22;41031;44.750;11.308;2023-06-10T05:47:41;22.20;97.50
55135;DHT22;41031;44.750;11.308;2023-06-10T05:50:52;22.20;97.50
55135;DHT22;41031;44.750;11.308;2023-06-10T05:53:30;22.20;97.50
55135;DHT22;41031;44.750;11.308;2023-06-10T05:56:43;22.20;97.50
55135;DHT22;41031;44.750;11.308;2023-06-10T05:59:44;22.20;97.60
55135;DHT22;41031;44.750;11.308;2023-06-10T06:02:31;22.20;97.60
55135;DHT22;41031;44.750;11.308;2023-06-10T06:05:05;22.20;97.60
55135;DHT22;41031;44.750;11.308;2023-06-10T06:10:56;22.20;97.70
55135;DHT22;41031;44.750;11.308;2023-06-10T06:13:41;22.20;97.70
55135;DHT22;41031;44.750;11.308;2023-06-10T06:16:31;22.20;97.60
55135;DHT22;41031;44.750;11.308;2023-06-10T06:22:36;22.20;97.60
55135;DHT22;41031;44.750;11.308;2023-06-10T06:25:19;22.20;97.60
55135;DHT22;41031;44.750;11.308;2023-06-10T06:27:58;22.20;97.70
55135;DHT22;41031;44.750;11.308;2023-06-10T06:30:50;22.20;97.70
55135;DHT22;41031;44.750;11.308;2023-06-10T06:36:40;22.20;97.70
55135;DHT22;41031;44.750;11.308;2023-06-10T06:39:39;22.30;97.80
55135;DHT22;41031;44.750;11.308;2023-06-10T06:42:09;22.30;97.80
55135;DHT22;41031;44.750;11.308;2023-06-10T06:45:03;22.30;97.80
55135;DHT22;41031;44.750;11.308;2023-06-10T06:48:06;22.40;97.90
55135;DHT22;41031;44.750;11.308;2023-06-10T06:51:00;22.40;97.90
55135;DHT22;41031;44.750;11.308;2023-06-10T06:53:47;22.50;97.90
55135;DHT22;41031;44.750;11.308;2023-06-10T06:56:43;22.50;97.90
55135;DHT22;41031;44.750;11.308;2023-06-10T06:59:12;22.50;97.80
55135;DHT22;41031;44.750;11.308;2023-06-10T07:01:41;22.60;97.80
55135;DHT22;41031;44.750;11.308;2023-06-10T07:04:17;22.60;97.80
55135;DHT22;41031;44.750;11.308;2023-06-10T07:06:50;22.70;97.80
55135;DHT22;41031;44.750;11.308;2023-06-10T07:09:21;22.70;97.80
55135;DHT22;41031;44.750;11.308;2023-06-10T07:11:55;22.70;97.80
55135;DHT22;41031;44.750;11.308;2023-06-10T07:14:59;22.80;98.10
55135;DHT22;41031;44.750;11.308;2023-06-10T07:17:46;22.90;97.80
55135;DHT22;41031;44.750;11.308;2023-06-10T07:20:23;23.00;97.70
55135;DHT22;41031;44.750;11.308;2023-06-10T07:23:26;23.00;97.70
55135;DHT22;41031;44.750;11.308;2023-06-10T07:25:54;23.00;97.60
55135;DHT22;41031;44.750;11.308;2023-06-10T07:28:31;23.10;97.60
55135;DHT22;41031;44.750;11.308;2023-06-10T07:31:08;23.10;97.60
55135;DHT22;41031;44.750;11.308;2023-06-10T07:33:53;23.20;97.60
55135;DHT22;41031;44.750;11.308;2023-06-10T07:36:46;23.30;97.50
55135;DHT22;41031;44.750;11.308;2023-06-10T07:39:14;23.40;97.40
55135;DHT22;41031;44.750;11.308;2023-06-10T07:42:12;23.40;97.30
55135;DHT22;41031;44.750;11.308;2023-06-10T07:44:43;23.50;97.00
55135;DHT22;41031;44.750;11.308;2023-06-10T07:47:11;23.70;96.90
55135;DHT22;41031;44.750;11.308;2023-06-10T07:49:39;23.70;96.40
55135;DHT22;41031;44.750;11.308;2023-06-10T07:52:17;23.80;96.20
55135;DHT22;41031;44.750;11.308;2023-06-10T07:54:45;23.90;95.90
55135;DHT22;41031;44.750;11.308;2023-06-10T07:57:16;23.90;95.40
55135;DHT22;41031;44.750;11.308;2023-06-10T07:59:44;23.90;95.30
55135;DHT22;41031;44.750;11.308;2023-06-10T08:02:12;23.90;95.20
55135;DHT22;41031;44.750;11.308;2023-06-10T08:04:40;23.90;95.30
55135;DHT22;41031;44.750;11.308;2023-06-10T08:07:11;23.80;95.30
55135;DHT22;41031;44.750;11.308;2023-06-10T08:09:42;23.80;95.40
55135;DHT22;41031;44.750;11.308;2023-06-10T08:12:19;23.80;95.20
55135;DHT22;41031;44.750;11.308;2023-06-10T08:15:02;23.80;95.20
55135;DHT22;41031;44.750;11.308;2023-06-10T08:17:31;23.80;95.30
55135;DHT22;41031;44.750;11.308;2023-06-10T08:20:01;23.90;95.50
55135;DHT22;41031;44.750;11.308;2023-06-10T08:22:28;24.00;95.50
55135;DHT22;41031;44.750;11.308;2023-06-10T08:24:59;24.00;95.10
55135;DHT22;41031;44.750;11.308;2023-06-10T08:27:27;24.00;94.50
55135;DHT22;41031;44.750;11.308;2023-06-10T08:29:58;24.00;94.20
55135;DHT22;41031;44.750;11.308;2023-06-10T08:32:28;24.00;94.50
55135;DHT22;41031;44.750;11.308;2023-06-10T08:34:59;24.10;94.60
55135;DHT22;41031;44.750;11.308;2023-06-10T08:37:38;24.20;94.30
55135;DHT22;41031;44.750;11.308;2023-06-10T08:40:18;24.20;94.10
55135;DHT22;41031;44.750;11.308;2023-06-10T08:43:00;24.30;94.00
55135;DHT22;41031;44.750;11.308;2023-06-10T08:45:37;24.40;94.30
55135;DHT22;41031;44.750;11.308;2023-06-10T08:48:11;24.50;93.90
55135;DHT22;41031;44.750;11.308;2023-06-10T08:50:43;24.50;93.60
55135;DHT22;41031;44.750;11.308;2023-06-10T08:54:04;24.60;93.50
55135;DHT22;41031;44.750;11.308;2023-06-10T08:56:39;24.60;93.10
55135;DHT22;41031;44.750;11.308;2023-06-10T08:59:09;24.60;92.70
55135;DHT22;41031;44.750;11.308;2023-06-10T09:01:38;24.70;92.60
55135;DHT22;41031;44.750;11.308;2023-06-10T09:04:07;24.70;92.60
55135;DHT22;41031;44.750;11.308;2023-06-10T09:06:43;24.70;92.40
55135;DHT22;41031;44.750;11.308;2023-06-10T09:09:26;24.80;92.20
55135;DHT22;41031;44.750;11.308;2023-06-10T09:11:59;24.80;92.00
55135;DHT22;41031;44.750;11.308;2023-06-10T09:14:27;24.90;92.10
55135;DHT22;41031;44.750;11.308;2023-06-10T09:16:55;25.10;92.20
55135;DHT22;41031;44.750;11.308;2023-06-10T09:19:41;25.30;92.00
55135;DHT22;41031;44.750;11.308;2023-06-10T09:22:13;25.50;91.50
55135;DHT22;41031;44.750;11.308;2023-06-10T09:24:44;25.70;91.20
55135;DHT22;41031;44.750;11.308;2023-06-10T09:27:16;25.70;91.20
55135;DHT22;41031;44.750;11.308;2023-06-10T09:30:04;25.80;91.00
55135;DHT22;41031;44.750;11.308;2023-06-10T09:32:40;25.80;90.80
55135;DHT22;41031;44.750;11.308;2023-06-10T09:35:32;25.70;90.30
55135;DHT22;41031;44.750;11.308;2023-06-10T09:38:03;25.70;90.00
55135;DHT22;41031;44.750;11.308;2023-06-10T09:40:57;25.60;90.00
55135;DHT22;41031;44.750;11.308;2023-06-10T09:43:43;25.40;89.80
55135;DHT22;41031;44.750;11.308;2023-06-10T09:46:50;25.30;89.00
55135;DHT22;41031;44.750;11.308;2023-06-10T09:50:00;25.20;88.80
55135;DHT22;41031;44.750;11.308;2023-06-10T09:52:48;25.00;89.50
55135;DHT22;41031;44.750;11.308;2023-06-10T09:55:40;24.90;89.50
55135;DHT22;41031;44.750;11.308;2023-06-10T09:58:44;24.80;88.80
55135;DHT22;41031;44.750;11.308;2023-06-10T10:01:16;24.80;88.40
55135;DHT22;41031;44.750;11.308;2023-06-10T10:03:57;24.70;88.40
55135;DHT22;41031;44.750;11.308;2023-06-10T10:06:38;24.70;89.10
55135;DHT22;41031;44.750;11.308;2023-06-10T10:09:07;24.70;88.70
55135;DHT22;41031;44.750;11.308;2023-06-10T10:12:19;24.70;88.90
55135;DHT22;41031;44.750;11.308;2023-06-10T10:15:02;24.70;88.90
55135;DHT22;41031;44.750;11.308;2023-06-10T10:18:14;24.70;87.70
55135;DHT22;41031;44.750;11.308;2023-06-10T10:21:28;24.70;87.00
55135;DHT22;41031;44.750;11.308;2023-06-10T10:24:25;24.70;87.60
55135;DHT22;41031;44.750;11.308;2023-06-10T10:26:59;24.80;87.30
55135;DHT22;41031;44.750;11.308;2023-06-10T10:29:38;24.90;87.20
55135;DHT22;41031;44.750;11.308;2023-06-10T10:32:16;25.00;86.80
55135;DHT22;41031;44.750;11.308;2023-06-10T10:35:23;25.10;84.50
55135;DHT22;41031;44.750;11.308;2023-06-10T10:37:55;25.20;82.40
55135;DHT22;41031;44.750;11.308;2023-06-10T10:40:32;25.30;81.60
55135;DHT22;41031;44.750;11.308;2023-06-10T10:43:03;25.40;81.20
55135;DHT22;41031;44.750;11.308;2023-06-10T10:45:33;25.40;79.80
55135;DHT22;41031;44.750;11.308;2023-06-10T10:48:10;25.40;79.80
55135;DHT22;41031;44.750;11.308;2023-06-10T10:50:57;25.40;80.40
55135;DHT22;41031;44.750;11.308;2023-06-10T10:53:39;25.40;80.40
55135;DHT22;41031;44.750;11.308;2023-06-10T10:56:16;25.40;78.20
55135;DHT22;41031;44.750;11.308;2023-06-10T10:59:04;25.30;79.20
55135;DHT22;41031;44.750;11.308;2023-06-10T11:01:45;25.20;80.60
55135;DHT22;41031;44.750;11.308;2023-06-10T11:04:18;25.20;80.00
55135;DHT22;41031;44.750;11.308;2023-06-10T11:06:54;25.10;80.20
55135;DHT22;41031;44.750;11.308;2023-06-10T11:09:28;25.10;80.20
55135;DHT22;41031;44.750;11.308;2023-06-10T11:11:59;25.00;80.20
55135;DHT22;41031;44.750;11.308;2023-06-10T11:14:30;24.80;81.10
55135;DHT22;41031;44.750;11.308;2023-06-10T11:17:18;24.80;81.00
55135;DHT22;41031;44.750;11.308;2023-06-10T11:19:48;24.70;81.40
55135;DHT22;41031;44.750;11.308;2023-06-10T11:22:19;24.60;81.40
55135;DHT22;41031;44.750;11.308;2023-06-10T11:24:51;24.60;81.30
55135;DHT22;41031;44.750;11.308;2023-06-10T11:27:37;24.60;82.00
55135;DHT22;41031;44.750;11.308;2023-06-10T11:30:20;24.50;82.20
55135;DHT22;41031;44.750;11.308;2023-06-10T11:33:03;24.40;82.20
55135;DHT22;41031;44.750;11.308;2023-06-10T11:35:35;24.40;82.60
55135;DHT22;41031;44.750;11.308;2023-06-10T11:38:19;24.40;83.10
55135;DHT22;41031;44.750;11.308;2023-06-10T11:40:51;24.40;83.70
55135;DHT22;41031;44.750;11.308;2023-06-10T11:43:19;24.40;84.20
55135;DHT22;41031;44.750;11.308;2023-06-10T11:45:47;24.50;84.80
55135;DHT22;41031;44.750;11.308;2023-06-10T11:48:22;24.60;84.70
55135;DHT22;41031;44.750;11.308;2023-06-10T11:50:53;24.60;83.60
55135;DHT22;41031;44.750;11.308;2023-06-10T11:53:44;24.60;83.60
55135;DHT22;41031;44.750;11.308;2023-06-10T11:56:11;24.60;83.40
55135;DHT22;41031;44.750;11.308;2023-06-10T12:01:44;24.60;83.60
55135;DHT22;41031;44.750;11.308;2023-06-10T12:04:32;24.60;83.50
55135;DHT22;41031;44.750;11.308;2023-06-10T12:07:16;24.60;83.70
55135;DHT22;41031;44.750;11.308;2023-06-10T12:09:44;24.60;84.00
55135;DHT22;41031;44.750;11.308;2023-06-10T12:12:18;24.60;83.70
55135;DHT22;41031;44.750;11.308;2023-06-10T12:15:05;24.60;84.30
55135;DHT22;41031;44.750;11.308;2023-06-10T12:17:45;24.60;84.40
55135;DHT22;41031;44.750;11.308;2023-06-10T12:20:31;24.60;84.20
55135;DHT22;41031;44.750;11.308;2023-06-10T12:23:09;24.60;84.40
55135;DHT22;41031;44.750;11.308;2023-06-10T12:25:37;24.70;84.90
55135;DHT22;41031;44.750;11.308;2023-06-10T12:28:10;24.60;84.70
55135;DHT22;41031;44.750;11.308;2023-06-10T12:30:39;24.60;85.20
55135;DHT22;41031;44.750;11.308;2023-06-10T12:33:21;24.60;85.70
55135;DHT22;41031;44.750;11.308;2023-06-10T12:35:53;24.60;86.30
55135;DHT22;41031;44.750;11.308;2023-06-10T12:38:22;24.60;86.40
55135;DHT22;41031;44.750;11.308;2023-06-10T12:41:06;24.60;86.70
55135;DHT22;41031;44.750;11.308;2023-06-10T12:43:33;24.70;86.80
55135;DHT22;41031;44.750;11.308;2023-06-10T12:46:10;24.70;87.00
55135;DHT22;41031;44.750;11.308;2023-06-10T12:48:57;24.80;87.00
55135;DHT22;41031;44.750;11.308;2023-06-10T12:51:32;24.80;86.90
55135;DHT22;41031;44.750;11.308;2023-06-10T12:54:01;24.80;86.10
55135;DHT22;41031;44.750;11.308;2023-06-10T12:56:41;24.80;86.00
55135;DHT22;41031;44.750;11.308;2023-06-10T12:59:28;24.80;86.50
55135;DHT22;41031;44.750;11.308;2023-06-10T13:01:56;24.80;86.80
55135;DHT22;41031;44.750;11.308;2023-06-10T13:04:24;24.80;87.30
55135;DHT22;41031;44.750;11.308;2023-06-10T13:06:55;24.80;87.90
55135;DHT22;41031;44.750;11.308;2023-06-10T13:09:27;24.90;88.10
55135;DHT22;41031;44.750;11.308;2023-06-10T13:12:15;24.90;87.90
55135;DHT22;41031;44.750;11.308;2023-06-10T13:15:06;24.90;87.30
55135;DHT22;41031;44.750;11.308;2023-06-10T13:17:35;24.90;87.70
55135;DHT22;41031;44.750;11.308;2023-06-10T13:20:07;24.90;87.80
55135;DHT22;41031;44.750;11.308;2023-06-10T13:22:36;24.90;87.60
55135;DHT22;41031;44.750;11.308;2023-06-10T13:25:13;24.80;87.40
55135;DHT22;41031;44.750;11.308;2023-06-10T13:27:41;24.80;87.00
55135;DHT22;41031;44.750;11.308;2023-06-10T13:30:10;24.80;87.10
55135;DHT22;41031;44.750;11.308;2023-06-10T13:32:43;24.70;87.50
55135;DHT22;41031;44.750;11.308;2023-06-10T13:35:11;24.60;87.60
55135;DHT22;41031;44.750;11.308;2023-06-10T13:37:51;24.60;87.80
55135;DHT22;41031;44.750;11.308;2023-06-10T13:40:31;24.40;88.70
55135;DHT22;41031;44.750;11.308;2023-06-10T13:43:11;24.40;89.70
55135;DHT22;41031;44.750;11.308;2023-06-10T13:45:41;24.40;90.10
55135;DHT22;41031;44.750;11.308;2023-06-10T13:48:13;24.30;90.40
55135;DHT22;41031;44.750;11.308;2023-06-10T13:50:44;24.40;90.70
55135;DHT22;41031;44.750;11.308;2023-06-10T13:53:23;24.40;91.00
55135;DHT22;41031;44.750;11.308;2023-06-10T13:55:51;24.40;91.00
55135;DHT22;41031;44.750;11.308;2023-06-10T13:58:24;24.40;90.80
55135;DHT22;41031;44.750;11.308;2023-06-10T14:01:23;24.40;90.90
55135;DHT22;41031;44.750;11.308;2023-06-10T14:03:54;24.40;91.00
55135;DHT22;41031;44.750;11.308;2023-06-10T14:06:22;24.30;91.00
55135;DHT22;41031;44.750;11.308;2023-06-10T14:08:50;24.30;91.00
55135;DHT22;41031;44.750;11.308;2023-06-10T14:11:18;24.20;91.00
55135;DHT22;41031;44.750;11.308;2023-06-10T14:13:53;24.20;91.00
55135;DHT22;41031;44.750;11.308;2023-06-10T14:16:27;24.10;91.20
55135;DHT22;41031;44.750;11.308;2023-06-10T14:18:57;24.10;91.40
55135;DHT22;41031;44.750;11.308;2023-06-10T14:21:27;24.10;91.50
55135;DHT22;41031;44.750;11.308;2023-06-10T14:23:54;24.10;91.60
55135;DHT22;41031;44.750;11.308;2023-06-10T14:26:25;24.10;91.60
55135;DHT22;41031;44.750;11.308;2023-06-10T14:28:58;24.10;91.70
55135;DHT22;41031;44.750;11.308;2023-06-10T14:31:31;24.10;91.80
55135;DHT22;41031;44.750;11.308;2023-06-10T14:34:13;24.10;92.00
55135;DHT22;41031;44.750;11.308;2023-06-10T14:36:43;24.20;92.10
55135;DHT22;41031;44.750;11.308;2023-06-10T14:39:21;24.20;91.80
55135;DHT22;41031;44.750;11.308;2023-06-10T14:41:49;24.10;91.60
55135;DHT22;41031;44.750;11.308;2023-06-10T14:44:26;24.10;91.60
55135;DHT22;41031;44.750;11.308;2023-06-10T14:46:58;24.10;91.50
55135;DHT22;41031;44.750;11.308;2023-06-10T14:49:25;24.20;91.50
55135;DHT22;41031;44.750;11.308;2023-06-10T14:51:53;24.20;91.50
55135;DHT22;41031;44.750;11.308;2023-06-10T14:54:25;24.30;91.70
55135;DHT22;41031;44.750;11.308;2023-06-10T14:56:55;24.30;91.40
55135;DHT22;41031;44.750;11.308;2023-06-10T14:59:37;24.20;91.40
55135;DHT22;41031;44.750;11.308;2023-06-10T15:02:12;24.30;91.40
55135;DHT22;41031;44.750;11.308;2023-06-10T15:04:45;24.30;91.40
55135;DHT22;41031;44.750;11.308;2023-06-10T15:07:16;24.30;91.50
55135;DHT22;41031;44.750;11.308;2023-06-10T15:09:57;24.30;91.20
55135;DHT22;41031;44.750;11.308;2023-06-10T15:12:28;24.20;90.90
55135;DHT22;41031;44.750;11.308;2023-06-10T15:15:01;24.20;91.00
55135;DHT22;41031;44.750;11.308;2023-06-10T15:17:34;24.10;91.30
55135;DHT22;41031;44.750;11.308;2023-06-10T15:20:06;24.10;91.30
55135;DHT22;41031;44.750;11.308;2023-06-10T15:22:33;24.00;90.70
55135;DHT22;41031;44.750;11.308;2023-06-10T15:25:03;24.00;90.60
55135;DHT22;41031;44.750;11.308;2023-06-10T15:27:55;24.00;90.50
55135;DHT22;41031;44.750;11.308;2023-06-10T15:30:24;23.90;90.40
55135;DHT22;41031;44.750;11.308;2023-06-10T15:32:54;23.90;90.70
55135;DHT22;41031;44.750;11.308;2023-06-10T15:35:25;23.90;90.90
55135;DHT22;41031;44.750;11.308;2023-06-10T15:38:03;23.90;90.80
55135;DHT22;41031;44.750;11.308;2023-06-10T15:40:41;24.00;90.50
55135;DHT22;41031;44.750;11.308;2023-06-10T15:43:11;24.00;90.00
55135;DHT22;41031;44.750;11.308;2023-06-10T15:45:43;24.00;89.40
55135;DHT22;41031;44.750;11.308;2023-06-10T15:48:15;24.10;89.40
55135;DHT22;41031;44.750;11.308;2023-06-10T15:50:45;24.20;89.80
55135;DHT22;41031;44.750;11.308;2023-06-10T15:53:15;24.20;89.90
55135;DHT22;41031;44.750;11.308;2023-06-10T15:55:59;24.30;89.60
55135;DHT22;41031;44.750;11.308;2023-06-10T15:58:30;24.40;88.20
55135;DHT22;41031;44.750;11.308;2023-06-10T16:01:30;24.50;86.60
55135;DHT22;41031;44.750;11.308;2023-06-10T16:04:06;24.50;84.80
55135;DHT22;41031;44.750;11.308;2023-06-10T16:06:36;24.50;84.20
55135;DHT22;41031;44.750;11.308;2023-06-10T16:09:06;24.50;83.90
55135;DHT22;41031;44.750;11.308;2023-06-10T16:11:34;24.60;83.40
55135;DHT22;41031;44.750;11.308;2023-06-10T16:14:02;24.60;82.40
55135;DHT22;41031;44.750;11.308;2023-06-10T16:16:34;24.50;82.90
55135;DHT22;41031;44.750;11.308;2023-06-10T16:19:03;24.50;83.00
55135;DHT22;41031;44.750;11.308;2023-06-10T16:21:30;24.50;83.10
55135;DHT22;41031;44.750;11.308;2023-06-10T16:23:58;24.50;83.60
55135;DHT22;41031;44.750;11.308;2023-06-10T16:26:29;24.50;83.80
55135;DHT22;41031;44.750;11.308;2023-06-10T16:28:57;24.50;84.20
55135;DHT22;41031;44.750;11.308;2023-06-10T16:31:27;24.60;84.70
55135;DHT22;41031;44.750;11.308;2023-06-10T16:33:58;24.60;85.10
55135;DHT22;41031;44.750;11.308;2023-06-10T16:36:25;24.70;85.90
55135;DHT22;41031;44.750;11.308;2023-06-10T16:38:57;24.70;86.50
55135;DHT22;41031;44.750;11.308;2023-06-10T16:41:26;24.70;86.50
55135;DHT22;41031;44.750;11.308;2023-06-10T16:44:03;24.70;86.60